sensor_id;sensor_type;location;lat;lon;timestamp;temperature;humidity
34406;DHT22;20658;45.630;8.886;2022-11-02T00:00:39;10.70;99.90
34406;DHT22;20658;45.630;8.886;2022-11-02T00:03:08;10.70;99.90
34406;DHT22;20658;45.630;8.886;2022-11-02T00:05:36;11.00;99.90
34406;DHT22;20658;45.630;8.886;2022-11-02T00:08:05;10.60;99.90
34406;DHT22;20658;45.630;8.886;2022-11-02T00:10:39;10.60;99.90
34406;DHT22;20658;45.630;8.886;2022-11-02T00:13:18;10.60;99.90
34406;DHT22;20658;45.630;8.886;2022-11-02T00:15:52;10.60;99.90
34406;DHT22;20658;45.630;8.886;2022-11-02T00:18:25;10.60;99.90
34406;DHT22;20658;45.630;8.886;2022-11-02T00:20:59;10.50;99.90
34406;DHT22;20658;45.630;8.886;2022-11-02T00:23:33;10.50;99.90
34406;DHT22;20658;45.630;8.886;2022-11-02T00:26:08;10.50;99.90
34406;DHT22;20658;45.630;8.886;2022-11-02T00:28:42;10.40;99.90
34406;DHT22;20658;45.630;8.886;2022-11-02T00:31:16;10.40;99.90
34406;DHT22;20658;45.630;8.886;2022-11-02T00:33:44;10.30;99.90
34406;DHT22;20658;45.630;8.886;2022-11-02T00:36:17;10.40;99.90
34406;DHT22;20658;45.630;8.886;2022-11-02T00:38:51;10.30;99.90
34406;DHT22;20658;45.630;8.886;2022-11-02T00:41:26;10.70;99.90
34406;DHT22;20658;45.630;8.886;2022-11-02T00:44:00;10.50;99.90
34406;DHT22;20658;45.630;8.886;2022-11-02T00:46:33;10.30;99.90
34406;DHT22;20658;45.630;8.886;2022-11-02T00:49:07;10.30;99.90
34406;DHT22;20658;45.630;8.886;2022-11-02T00:51:35;10.20;99.90
34406;DHT22;20658;45.630;8.886;2022-11-02T00:54:09;10.20;99.90
34406;DHT22;20658;45.630;8.886;2022-11-02T00:56:44;10.40;99.90
34406;DHT22;20658;45.630;8.886;2022-11-02T00:59:18;10.20;99.90
34406;DHT22;20658;45.630;8.886;2022-11-02T01:01:54;10.20;99.90
34406;DHT22;20658;45.630;8.886;2022-11-02T01:04:27;10.20;99.90
34406;DHT22;20658;45.630;8.886;2022-11-02T01:07:01;10.10;99.90
34406;DHT22;20658;45.630;8.886;2022-11-02T01:09:35;10.10;99.90
34406;DHT22;20658;45.630;8.886;2022-11-02T01:12:10;10.20;99.90
34406;DHT22;20658;45.630;8.886;2022-11-02T01:14:45;10.10;99.90
34406;DHT22;20658;45.630;8.886;2022-11-02T01:17:18;10.00;99.90
34406;DHT22;20658;45.630;8.886;2022-11-02T01:19:52;10.00;99.90
34406;DHT22;20658;45.630;8.886;2022-11-02T01:22:25;10.00;99.90
34406;DHT22;20658;45.630;8.886;2022-11-02T01:24:58;10.00;99.90
34406;DHT22;20658;45.630;8.886;2022-11-02T01:27:33;10.00;99.90
34406;DHT22;20658;45.630;8.886;2022-11-02T01:30:07;10.00;99.90
34406;DHT22;20658;45.630;8.886;2022-11-02T01:32:42;10.00;99.90
34406;DHT22;20658;45.630;8.886;2022-11-02T01:35:11;10.00;99.90
34406;DHT22;20658;45.630;8.886;2022-11-02T01:37:44;10.00;99.90
34406;DHT22;20658;45.630;8.886;2022-11-02T01:40:17;10.00;99.90
34406;DHT22;20658;45.630;8.886;2022-11-02T01:42:47;10.00;99.90
34406;DHT22;20658;45.630;8.886;2022-11-02T01:45:21;9.90;99.90
34406;DHT22;20658;45.630;8.886;2022-11-02T01:47:49;10.00;99.90
34406;DHT22;20658;45.630;8.886;2022-11-02T01:50:20;10.00;99.90
34406;DHT22;20658;45.630;8.886;2022-11-02T01:52:51;9.90;99.90
34406;DHT22;20658;45.630;8.886;2022-11-02T01:55:23;10.00;99.90
34406;DHT22;20658;45.630;8.886;2022-11-02T01:57:59;10.00;99.90
34406;DHT22;20658;45.630;8.886;2022-11-02T02:00:34;9.90;99.90
34406;DHT22;20658;45.630;8.886;2022-11-02T02:03:11;9.90;99.90
34406;DHT22;20658;45.630;8.886;2022-11-02T02:05:53;9.90;99.90
34406;DHT22;20658;45.630;8.886;2022-11-02T02:08:31;9.90;99.90
34406;DHT22;20658;45.630;8.886;2022-11-02T02:11:24;9.90;99.90
34406;DHT22;20658;45.630;8.886;2022-11-02T02:14:03;9.90;99.90
34406;DHT22;20658;45.630;8.886;2022-11-02T02:17:03;9.80;99.90
34406;DHT22;20658;45.630;8.886;2022-11-02T02:19:52;9.90;99.90
34406;DHT22;20658;45.630;8.886;2022-11-02T02:23:04;9.80;99.90
34406;DHT22;20658;45.630;8.886;2022-11-02T02:29:18;9.80;99.90
34406;DHT22;20658;45.630;8.886;2022-11-02T02:31:57;9.70;99.90
34406;DHT22;20658;45.630;8.886;2022-11-02T02:34:36;9.70;99.90
34406;DHT22;20658;45.630;8.886;2022-11-02T02:37:15;9.70;99.90
34406;DHT22;20658;45.630;8.886;2022-11-02T02:39:57;9.60;99.90
34406;DHT22;20658;45.630;8.886;2022-11-02T02:42:42;9.60;99.90
34406;DHT22;20658;45.630;8.886;2022-11-02T02:45:22;9.50;99.90
34406;DHT22;20658;45.630;8.886;2022-11-02T02:48:00;9.50;99.90
34406;DHT22;20658;45.630;8.886;2022-11-02T02:50:40;9.50;99.90
34406;DHT22;20658;45.630;8.886;2022-11-02T02:53:14;9.50;99.90
34406;DHT22;20658;45.630;8.886;2022-11-02T02:55:49;9.50;99.90
34406;DHT22;20658;45.630;8.886;2022-11-02T02:58:25;9.50;99.90
34406;DHT22;20658;45.630;8.886;2022-11-02T03:01:04;9.50;99.90
34406;DHT22;20658;45.630;8.886;2022-11-02T03:03:39;9.50;99.90
34406;DHT22;20658;45.630;8.886;2022-11-02T03:06:17;9.50;99.90
34406;DHT22;20658;45.630;8.886;2022-11-02T03:09:02;9.40;99.90
34406;DHT22;20658;45.630;8.886;2022-11-02T03:11:49;9.40;99.90
34406;DHT22;20658;45.630;8.886;2022-11-02T03:14:36;9.40;99.90
34406;DHT22;20658;45.630;8.886;2022-11-02T03:17:23;9.40;99.90
34406;DHT22;20658;45.630;8.886;2022-11-02T03:20:06;9.40;99.90
34406;DHT22;20658;45.630;8.886;2022-11-02T03:22:52;9.40;99.90
34406;DHT22;20658;45.630;8.886;2022-11-02T03:25:38;9.60;99.90
34406;DHT22;20658;45.630;8.886;2022-11-02T03:28:23;9.40;99.90
34406;DHT22;20658;45.630;8.886;2022-11-02T03:31:06;9.40;99.90
34406;DHT22;20658;45.630;8.886;2022-11-02T03:33:50;9.40;99.90
34406;DHT22;20658;45.630;8.886;2022-11-02T03:36:32;9.40;99.90
34406;DHT22;20658;45.630;8.886;2022-11-02T03:39:10;9.40;99.90
34406;DHT22;20658;45.630;8.886;2022-11-02T03:41:45;9.40;99.90
34406;DHT22;20658;45.630;8.886;2022-11-02T03:44:22;9.40;99.90
34406;DHT22;20658;45.630;8.886;2022-11-02T03:46:58;9.40;99.90
34406;DHT22;20658;45.630;8.886;2022-11-02T03:49:30;9.30;99.90
34406;DHT22;20658;45.630;8.886;2022-11-02T03:52:07;9.30;99.90
34406;DHT22;20658;45.630;8.886;2022-11-02T03:54:47;9.30;99.90
34406;DHT22;20658;45.630;8.886;2022-11-02T03:57:24;9.30;99.90
34406;DHT22;20658;45.630;8.886;2022-11-02T04:00:19;9.30;99.90
34406;DHT22;20658;45.630;8.886;2022-11-02T04:03:00;9.30;99.90
34406;DHT22;20658;45.630;8.886;2022-11-02T04:05:41;9.30;99.90
34406;DHT22;20658;45.630;8.886;2022-11-02T04:08:24;9.30;99.90
34406;DHT22;20658;45.630;8.886;2022-11-02T04:11:05;9.60;99.90
34406;DHT22;20658;45.630;8.886;2022-11-02T04:14:02;9.30;99.90
34406;DHT22;20658;45.630;8.886;2022-11-02T04:16:52;9.30;99.90
34406;DHT22;20658;45.630;8.886;2022-11-02T04:19:50;9.30;99.90
34406;DHT22;20658;45.630;8.886;2022-11-02T04:22:25;9.30;99.90
34406;DHT22;20658;45.630;8.886;2022-11-02T04:25:18;9.40;99.90
34406;DHT22;20658;45.630;8.886;2022-11-02T04:28:07;9.40;99.90
34406;DHT22;20658;45.630;8.886;2022-11-02T04:30:56;9.30;99.90
34406;DHT22;20658;45.630;8.886;2022-11-02T04:33:36;9.30;99.90
34406;DHT22;20658;45.630;8.886;2022-11-02T04:36:11;9.30;99.90
34406;DHT22;20658;45.630;8.886;2022-11-02T04:38:41;9.60;99.90
34406;DHT22;20658;45.630;8.886;2022-11-02T04:41:21;9.20;99.90
34406;DHT22;20658;45.630;8.886;2022-11-02T04:44:38;9.20;99.90
34406;DHT22;20658;45.630;8.886;2022-11-02T04:47:18;9.20;99.90
34406;DHT22;20658;45.630;8.886;2022-11-02T04:49:51;9.10;99.90
34406;DHT22;20658;45.630;8.886;2022-11-02T04:52:25;9.10;99.90
34406;DHT22;20658;45.630;8.886;2022-11-02T04:54:59;9.20;99.90
34406;DHT22;20658;45.630;8.886;2022-11-02T04:57:33;9.20;99.90
34406;DHT22;20658;45.630;8.886;2022-11-02T05:00:08;9.20;99.90
34406;DHT22;20658;45.630;8.886;2022-11-02T05:02:42;9.20;99.90
34406;DHT22;20658;45.630;8.886;2022-11-02T05:05:20;9.20;99.90
34406;DHT22;20658;45.630;8.886;2022-11-02T05:07:57;9.20;99.90
34406;DHT22;20658;45.630;8.886;2022-11-02T05:10:32;9.30;99.90
34406;DHT22;20658;45.630;8.886;2022-11-02T05:13:05;9.10;99.90
34406;DHT22;20658;45.630;8.886;2022-11-02T05:15:37;9.00;99.90
34406;DHT22;20658;45.630;8.886;2022-11-02T05:18:11;9.00;99.90
34406;DHT22;20658;45.630;8.886;2022-11-02T05:20:49;8.90;99.90
34406;DHT22;20658;45.630;8.886;2022-11-02T05:23:25;8.90;99.90
34406;DHT22;20658;45.630;8.886;2022-11-02T05:26:03;8.90;99.90
34406;DHT22;20658;45.630;8.886;2022-11-02T05:28:41;8.90;99.90
34406;DHT22;20658;45.630;8.886;2022-11-02T05:31:15;8.90;99.90
34406;DHT22;20658;45.630;8.886;2022-11-02T05:33:49;8.80;99.90
34406;DHT22;20658;45.630;8.886;2022-11-02T05:36:22;8.80;99.90
34406;DHT22;20658;45.630;8.886;2022-11-02T05:38:57;8.80;99.90
34406;DHT22;20658;45.630;8.886;2022-11-02T05:41:28;8.80;99.90
34406;DHT22;20658;45.630;8.886;2022-11-02T05:44:01;8.80;99.90
34406;DHT22;20658;45.630;8.886;2022-11-02T05:46:37;8.80;99.90
34406;DHT22;20658;45.630;8.886;2022-11-02T05:49:10;9.10;99.90
34406;DHT22;20658;45.630;8.886;2022-11-02T05:51:44;8.80;99.90
34406;DHT22;20658;45.630;8.886;2022-11-02T05:54:17;8.70;99.90
34406;DHT22;20658;45.630;8.886;2022-11-02T05:56:52;8.70;99.90
34406;DHT22;20658;45.630;8.886;2022-11-02T05:59:25;8.70;99.90
34406;DHT22;20658;45.630;8.886;2022-11-02T06:01:59;8.70;99.90
34406;DHT22;20658;45.630;8.886;2022-11-02T06:04:32;9.00;99.90
34406;DHT22;20658;45.630;8.886;2022-11-02T06:07:00;8.80;99.90
34406;DHT22;20658;45.630;8.886;2022-11-02T06:09:35;8.80;99.90
34406;DHT22;20658;45.630;8.886;2022-11-02T06:12:09;8.80;99.90
34406;DHT22;20658;45.630;8.886;2022-11-02T06:14:38;8.80;99.90
34406;DHT22;20658;45.630;8.886;2022-11-02T06:17:11;8.80;99.90
34406;DHT22;20658;45.630;8.886;2022-11-02T06:19:39;8.80;99.90
34406;DHT22;20658;45.630;8.886;2022-11-02T06:22:13;8.90;99.90
34406;DHT22;20658;45.630;8.886;2022-11-02T06:24:41;8.90;99.90
34406;DHT22;20658;45.630;8.886;2022-11-02T06:27:16;8.90;99.90
34406;DHT22;20658;45.630;8.886;2022-11-02T06:29:49;8.90;99.90
34406;DHT22;20658;45.630;8.886;2022-11-02T06:32:24;8.90;99.90
34406;DHT22;20658;45.630;8.886;2022-11-02T06:34:57;8.90;99.90
34406;DHT22;20658;45.630;8.886;2022-11-02T06:37:32;8.90;99.90
34406;DHT22;20658;45.630;8.886;2022-11-02T06:40:01;9.00;99.90
34406;DHT22;20658;45.630;8.886;2022-11-02T06:42:36;9.00;99.90
34406;DHT22;20658;45.630;8.886;2022-11-02T06:45:05;9.00;99.90
34406;DHT22;20658;45.630;8.886;2022-11-02T06:47:40;9.10;99.90
34406;DHT22;20658;45.630;8.886;2022-11-02T06:50:13;9.10;99.90
34406;DHT22;20658;45.630;8.886;2022-11-02T06:52:47;9.20;99.90
34406;DHT22;20658;45.630;8.886;2022-11-02T06:55:21;9.20;99.90
34406;DHT22;20658;45.630;8.886;2022-11-02T06:57:56;9.30;99.90
34406;DHT22;20658;45.630;8.886;2022-11-02T07:00:30;9.30;99.90
34406;DHT22;20658;45.630;8.886;2022-11-02T07:03:05;9.60;99.90
34406;DHT22;20658;45.630;8.886;2022-11-02T07:05:39;9.50;99.90
34406;DHT22;20658;45.630;8.886;2022-11-02T07:08:12;9.50;99.90
34406;DHT22;20658;45.630;8.886;2022-11-02T07:10:46;9.60;99.90
34406;DHT22;20658;45.630;8.886;2022-11-02T07:13:21;9.80;99.90
34406;DHT22;20658;45.630;8.886;2022-11-02T07:15:55;9.80;99.90
34406;DHT22;20658;45.630;8.886;2022-11-02T07:18:28;9.90;99.90
34406;DHT22;20658;45.630;8.886;2022-11-02T07:21:02;10.00;99.90
34406;DHT22;20658;45.630;8.886;2022-11-02T07:23:36;10.10;99.90
34406;DHT22;20658;45.630;8.886;2022-11-02T07:26:09;10.20;99.90
34406;DHT22;20658;45.630;8.886;2022-11-02T07:28:46;10.30;99.90
34406;DHT22;20658;45.630;8.886;2022-11-02T07:31:19;10.40;99.90
34406;DHT22;20658;45.630;8.886;2022-11-02T07:33:52;10.40;99.90
34406;DHT22;20658;45.630;8.886;2022-11-02T07:36:25;10.40;99.90
34406;DHT22;20658;45.630;8.886;2022-11-02T07:38:54;10.60;99.90
34406;DHT22;20658;45.630;8.886;2022-11-02T07:41:22;10.70;99.90
34406;DHT22;20658;45.630;8.886;2022-11-02T07:43:57;10.80;99.90
34406;DHT22;20658;45.630;8.886;2022-11-02T07:46:52;10.90;99.90
34406;DHT22;20658;45.630;8.886;2022-11-02T07:49:25;11.00;99.90
34406;DHT22;20658;45.630;8.886;2022-11-02T07:51:59;11.10;99.90
34406;DHT22;20658;45.630;8.886;2022-11-02T07:54:32;11.30;99.90
34406;DHT22;20658;45.630;8.886;2022-11-02T07:57:05;11.50;99.90
34406;DHT22;20658;45.630;8.886;2022-11-02T07:59:40;11.50;99.90
34406;DHT22;20658;45.630;8.886;2022-11-02T08:02:13;11.60;99.90
34406;DHT22;20658;45.630;8.886;2022-11-02T08:04:47;11.70;99.90
34406;DHT22;20658;45.630;8.886;2022-11-02T08:07:20;12.20;99.90
34406;DHT22;20658;45.630;8.886;2022-11-02T08:09:54;12.00;99.90
34406;DHT22;20658;45.630;8.886;2022-11-02T08:12:27;12.10;99.90
34406;DHT22;20658;45.630;8.886;2022-11-02T08:15:02;12.20;99.90
34406;DHT22;20658;45.630;8.886;2022-11-02T08:17:36;12.10;99.90
34406;DHT22;20658;45.630;8.886;2022-11-02T08:20:10;12.30;99.90
34406;DHT22;20658;45.630;8.886;2022-11-02T08:22:43;12.40;99.90
34406;DHT22;20658;45.630;8.886;2022-11-02T08:25:17;12.50;99.90
34406;DHT22;20658;45.630;8.886;2022-11-02T08:27:50;12.70;99.90
34406;DHT22;20658;45.630;8.886;2022-11-02T08:30:26;12.80;99.90
34406;DHT22;20658;45.630;8.886;2022-11-02T08:32:58;13.00;99.90
34406;DHT22;20658;45.630;8.886;2022-11-02T08:35:34;13.10;99.90
34406;DHT22;20658;45.630;8.886;2022-11-02T08:38:08;13.60;99.90
34406;DHT22;20658;45.630;8.886;2022-11-02T08:40:42;13.30;99.90
34406;DHT22;20658;45.630;8.886;2022-11-02T08:43:16;13.30;99.90
34406;DHT22;20658;45.630;8.886;2022-11-02T08:45:51;13.40;99.90
34406;DHT22;20658;45.630;8.886;2022-11-02T08:48:19;13.60;99.90
34406;DHT22;20658;45.630;8.886;2022-11-02T08:50:53;13.80;99.90
34406;DHT22;20658;45.630;8.886;2022-11-02T08:53:27;13.90;99.90
34406;DHT22;20658;45.630;8.886;2022-11-02T08:56:00;14.00;99.90
34406;DHT22;20658;45.630;8.886;2022-11-02T08:58:33;14.50;99.90
34406;DHT22;20658;45.630;8.886;2022-11-02T09:01:08;14.30;99.90
34406;DHT22;20658;45.630;8.886;2022-11-02T09:03:42;14.50;99.90
34406;DHT22;20658;45.630;8.886;2022-11-02T09:06:15;14.50;98.80
34406;DHT22;20658;45.630;8.886;2022-11-02T09:08:49;14.50;98.60
34406;DHT22;20658;45.630;8.886;2022-11-02T09:11:22;14.50;98.80
34406;DHT22;20658;45.630;8.886;2022-11-02T09:13:55;14.70;98.20
34406;DHT22;20658;45.630;8.886;2022-11-02T09:16:30;15.00;98.20
34406;DHT22;20658;45.630;8.886;2022-11-02T09:19:03;14.90;98.00
34406;DHT22;20658;45.630;8.886;2022-11-02T09:21:37;15.00;97.60
34406;DHT22;20658;45.630;8.886;2022-11-02T09:24:10;15.20;97.50
34406;DHT22;20658;45.630;8.886;2022-11-02T09:26:43;15.40;96.50
34406;DHT22;20658;45.630;8.886;2022-11-02T09:29:19;15.40;95.70
34406;DHT22;20658;45.630;8.886;2022-11-02T09:31:53;15.50;94.70
34406;DHT22;20658;45.630;8.886;2022-11-02T09:34:27;15.60;94.90
34406;DHT22;20658;45.630;8.886;2022-11-02T09:37:00;15.70;93.70
34406;DHT22;20658;45.630;8.886;2022-11-02T09:39:28;15.60;92.90
34406;DHT22;20658;45.630;8.886;2022-11-02T09:42:12;15.70;93.60
34406;DHT22;20658;45.630;8.886;2022-11-02T09:44:57;15.90;92.90
34406;DHT22;20658;45.630;8.886;2022-11-02T09:47:40;16.30;92.30
34406;DHT22;20658;45.630;8.886;2022-11-02T09:50:17;16.00;90.70
34406;DHT22;20658;45.630;8.886;2022-11-02T09:52:56;16.00;90.00
34406;DHT22;20658;45.630;8.886;2022-11-02T09:55:35;16.00;90.30
34406;DHT22;20658;45.630;8.886;2022-11-02T09:58:13;16.20;90.00
34406;DHT22;20658;45.630;8.886;2022-11-02T10:00:51;16.40;89.80
34406;DHT22;20658;45.630;8.886;2022-11-02T10:03:40;16.50;88.70
34406;DHT22;20658;45.630;8.886;2022-11-02T10:06:20;16.40;88.20
34406;DHT22;20658;45.630;8.886;2022-11-02T10:08:58;16.50;88.30
34406;DHT22;20658;45.630;8.886;2022-11-02T10:11:43;16.70;88.40
34406;DHT22;20658;45.630;8.886;2022-11-02T10:14:26;17.00;87.40
34406;DHT22;20658;45.630;8.886;2022-11-02T10:17:09;17.40;86.60
34406;DHT22;20658;45.630;8.886;2022-11-02T10:19:48;17.30;86.20
34406;DHT22;20658;45.630;8.886;2022-11-02T10:22:30;17.40;85.10
34406;DHT22;20658;45.630;8.886;2022-11-02T10:25:06;17.30;84.10
34406;DHT22;20658;45.630;8.886;2022-11-02T10:27:46;17.60;83.80
34406;DHT22;20658;45.630;8.886;2022-11-02T10:30:18;17.50;83.30
34406;DHT22;20658;45.630;8.886;2022-11-02T10:32:53;17.60;83.70
34406;DHT22;20658;45.630;8.886;2022-11-02T10:35:35;17.60;83.20
34406;DHT22;20658;45.630;8.886;2022-11-02T10:38:25;17.50;83.30
34406;DHT22;20658;45.630;8.886;2022-11-02T10:41:15;17.60;84.20
34406;DHT22;20658;45.630;8.886;2022-11-02T10:44:06;17.80;83.60
34406;DHT22;20658;45.630;8.886;2022-11-02T10:46:50;17.80;83.80
34406;DHT22;20658;45.630;8.886;2022-11-02T10:52:54;18.00;83.40
34406;DHT22;20658;45.630;8.886;2022-11-02T10:55:38;18.40;81.90
34406;DHT22;20658;45.630;8.886;2022-11-02T10:58:19;18.40;80.40
34406;DHT22;20658;45.630;8.886;2022-11-02T11:01:06;18.20;79.60
34406;DHT22;20658;45.630;8.886;2022-11-02T11:03:57;18.20;81.30
34406;DHT22;20658;45.630;8.886;2022-11-02T11:06:35;18.10;81.60
34406;DHT22;20658;45.630;8.886;2022-11-02T11:09:15;18.20;81.60
34406;DHT22;20658;45.630;8.886;2022-11-02T11:11:52;18.20;81.50
34406;DHT22;20658;45.630;8.886;2022-11-02T11:14:22;18.20;81.30
34406;DHT22;20658;45.630;8.886;2022-11-02T11:16:57;18.20;81.00
34406;DHT22;20658;45.630;8.886;2022-11-02T11:19:34;18.20;80.90
34406;DHT22;20658;45.630;8.886;2022-11-02T11:22:24;18.40;81.10
34406;DHT22;20658;45.630;8.886;2022-11-02T11:25:18;18.50;80.50
34406;DHT22;20658;45.630;8.886;2022-11-02T11:27:55;18.50;80.60
34406;DHT22;20658;45.630;8.886;2022-11-02T11:30:30;18.60;80.40
34406;DHT22;20658;45.630;8.886;2022-11-02T11:33:14;18.60;80.10
34406;DHT22;20658;45.630;8.886;2022-11-02T11:35:49;18.60;79.90
34406;DHT22;20658;45.630;8.886;2022-11-02T11:38:24;18.40;80.00
34406;DHT22;20658;45.630;8.886;2022-11-02T11:40:56;18.30;80.90
34406;DHT22;20658;45.630;8.886;2022-11-02T11:43:37;18.30;81.10
34406;DHT22;20658;45.630;8.886;2022-11-02T11:46:13;18.30;81.60
34406;DHT22;20658;45.630;8.886;2022-11-02T11:48:46;18.40;81.80
34406;DHT22;20658;45.630;8.886;2022-11-02T11:51:29;18.60;81.40
34406;DHT22;20658;45.630;8.886;2022-11-02T11:54:24;18.50;81.80
34406;DHT22;20658;45.630;8.886;2022-11-02T11:57:20;18.40;81.90
34406;DHT22;20658;45.630;8.886;2022-11-02T11:59:56;18.50;82.30
34406;DHT22;20658;45.630;8.886;2022-11-02T12:02:35;18.60;81.90
34406;DHT22;20658;45.630;8.886;2022-11-02T12:05:13;18.70;80.80
34406;DHT22;20658;45.630;8.886;2022-11-02T12:08:00;18.70;80.90
34406;DHT22;20658;45.630;8.886;2022-11-02T12:11:01;18.80;80.10
34406;DHT22;20658;45.630;8.886;2022-11-02T12:14:02;18.70;79.80
34406;DHT22;20658;45.630;8.886;2022-11-02T12:16:57;18.60;79.30
34406;DHT22;20658;45.630;8.886;2022-11-02T12:19:53;18.50;79.80
34406;DHT22;20658;45.630;8.886;2022-11-02T12:22:42;18.50;80.60
34406;DHT22;20658;45.630;8.886;2022-11-02T12:25:27;18.70;79.90
34406;DHT22;20658;45.630;8.886;2022-11-02T12:28:18;18.90;79.20
34406;DHT22;20658;45.630;8.886;2022-11-02T12:31:12;19.00;79.10
34406;DHT22;20658;45.630;8.886;2022-11-02T12:33:55;18.90;78.10
34406;DHT22;20658;45.630;8.886;2022-11-02T12:36:54;19.00;78.40
34406;DHT22;20658;45.630;8.886;2022-11-02T12:39:47;19.00;78.50
34406;DHT22;20658;45.630;8.886;2022-11-02T12:42:26;18.90;78.20
34406;DHT22;20658;45.630;8.886;2022-11-02T12:45:16;18.90;78.00
34406;DHT22;20658;45.630;8.886;2022-11-02T12:47:56;18.80;78.30
34406;DHT22;20658;45.630;8.886;2022-11-02T12:50:44;18.90;78.90
34406;DHT22;20658;45.630;8.886;2022-11-02T12:53:43;18.90;78.50
34406;DHT22;20658;45.630;8.886;2022-11-02T12:56:22;18.80;78.50
34406;DHT22;20658;45.630;8.886;2022-11-02T12:58:58;18.70;79.50
34406;DHT22;20658;45.630;8.886;2022-11-02T13:01:29;18.70;79.80
34406;DHT22;20658;45.630;8.886;2022-11-02T13:04:14;18.60;80.00
34406;DHT22;20658;45.630;8.886;2022-11-02T13:06:53;18.60;80.90
34406;DHT22;20658;45.630;8.886;2022-11-02T13:09:37;18.60;81.10
34406;DHT22;20658;45.630;8.886;2022-11-02T13:12:11;18.50;81.10
34406;DHT22;20658;45.630;8.886;2022-11-02T13:14:47;18.40;81.70
34406;DHT22;20658;45.630;8.886;2022-11-02T13:17:24;18.20;82.90
34406;DHT22;20658;45.630;8.886;2022-11-02T13:20:04;18.20;83.20
34406;DHT22;20658;45.630;8.886;2022-11-02T13:22:47;18.10;82.70
34406;DHT22;20658;45.630;8.886;2022-11-02T13:25:27;18.10;83.60
34406;DHT22;20658;45.630;8.886;2022-11-02T13:28:05;18.20;84.10
34406;DHT22;20658;45.630;8.886;2022-11-02T13:30:38;18.20;83.50
34406;DHT22;20658;45.630;8.886;2022-11-02T13:33:12;18.10;83.10
34406;DHT22;20658;45.630;8.886;2022-11-02T13:35:48;18.20;83.90
34406;DHT22;20658;45.630;8.886;2022-11-02T13:38:28;18.40;83.10
34406;DHT22;20658;45.630;8.886;2022-11-02T13:41:24;18.40;83.10
34406;DHT22;20658;45.630;8.886;2022-11-02T13:44:30;18.50;82.40
34406;DHT22;20658;45.630;8.886;2022-11-02T13:50:23;18.80;81.40
34406;DHT22;20658;45.630;8.886;2022-11-02T13:53:01;18.80;80.50
34406;DHT22;20658;45.630;8.886;2022-11-02T13:55:39;18.70;80.30
34406;DHT22;20658;45.630;8.886;2022-11-02T13:58:21;18.70;81.00
34406;DHT22;20658;45.630;8.886;2022-11-02T14:00:59;18.60;81.40
34406;DHT22;20658;45.630;8.886;2022-11-02T14:03:45;18.60;80.60
34406;DHT22;20658;45.630;8.886;2022-11-02T14:06:16;18.50;81.70
34406;DHT22;20658;45.630;8.886;2022-11-02T14:08:54;18.50;81.80
34406;DHT22;20658;45.630;8.886;2022-11-02T14:11:45;18.40;80.70
34406;DHT22;20658;45.630;8.886;2022-11-02T14:14:21;18.40;81.70
34406;DHT22;20658;45.630;8.886;2022-11-02T14:17:13;18.50;81.80
34406;DHT22;20658;45.630;8.886;2022-11-02T14:19:53;18.50;81.10
34406;DHT22;20658;45.630;8.886;2022-11-02T14:22:22;18.50;81.00
34406;DHT22;20658;45.630;8.886;2022-11-02T14:24:54;18.50;81.20
34406;DHT22;20658;45.630;8.886;2022-11-02T14:27:42;18.60;81.30
34406;DHT22;20658;45.630;8.886;2022-11-02T14:30:42;18.50;80.00
34406;DHT22;20658;45.630;8.886;2022-11-02T14:33:38;18.50;80.40
34406;DHT22;20658;45.630;8.886;2022-11-02T14:36:39;18.20;81.00
34406;DHT22;20658;45.630;8.886;2022-11-02T14:39:25;18.20;81.80
34406;DHT22;20658;45.630;8.886;2022-11-02T14:42:21;18.10;82.20
34406;DHT22;20658;45.630;8.886;2022-11-02T14:45:19;18.00;82.30
34406;DHT22;20658;45.630;8.886;2022-11-02T14:47:57;17.90;82.40
34406;DHT22;20658;45.630;8.886;2022-11-02T14:50:33;17.90;82.20
34406;DHT22;20658;45.630;8.886;2022-11-02T14:53:08;17.90;83.30
34406;DHT22;20658;45.630;8.886;2022-11-02T14:55:51;17.90;83.50
34406;DHT22;20658;45.630;8.886;2022-11-02T14:58:31;17.90;83.60
34406;DHT22;20658;45.630;8.886;2022-11-02T15:01:12;17.90;83.70
34406;DHT22;20658;45.630;8.886;2022-11-02T15:03:41;17.80;84.00
34406;DHT22;20658;45.630;8.886;2022-11-02T15:06:18;17.80;84.30
34406;DHT22;20658;45.630;8.886;2022-11-02T15:08:52;17.70;84.90
34406;DHT22;20658;45.630;8.886;2022-11-02T15:11:47;17.60;85.00
34406;DHT22;20658;45.630;8.886;2022-11-02T15:17:59;17.50;85.80
34406;DHT22;20658;45.630;8.886;2022-11-02T15:26:49;17.20;86.80
34406;DHT22;20658;45.630;8.886;2022-11-02T15:29:38;17.10;87.30
34406;DHT22;20658;45.630;8.886;2022-11-02T15:32:17;17.00;87.80
34406;DHT22;20658;45.630;8.886;2022-11-02T15:34:53;17.00;87.90
34406;DHT22;20658;45.630;8.886;2022-11-02T15:37:30;16.90;88.00
34406;DHT22;20658;45.630;8.886;2022-11-02T15:40:17;16.80;88.30
34406;DHT22;20658;45.630;8.886;2022-11-02T15:42:59;16.70;88.70
34406;DHT22;20658;45.630;8.886;2022-11-02T15:45:50;16.60;89.20
34406;DHT22;20658;45.630;8.886;2022-11-02T15:48:34;16.60;89.80
34406;DHT22;20658;45.630;8.886;2022-11-02T15:51:19;16.50;90.10
34406;DHT22;20658;45.630;8.886;2022-11-02T15:54:10;16.40;90.40
34406;DHT22;20658;45.630;8.886;2022-11-02T15:56:59;16.30;90.80
34406;DHT22;20658;45.630;8.886;2022-11-02T16:00:03;16.20;91.00
34406;DHT22;20658;45.630;8.886;2022-11-02T16:02:38;16.20;91.60
34406;DHT22;20658;45.630;8.886;2022-11-02T16:05:16;16.10;92.20
34406;DHT22;20658;45.630;8.886;2022-11-02T16:07:53;16.00;92.60
34406;DHT22;20658;45.630;8.886;2022-11-02T16:10:28;16.00;92.90
34406;DHT22;20658;45.630;8.886;2022-11-02T16:13:12;15.90;93.10
34406;DHT22;20658;45.630;8.886;2022-11-02T16:15:48;15.90;93.40
34406;DHT22;20658;45.630;8.886;2022-11-02T16:18:24;15.90;93.60
34406;DHT22;20658;45.630;8.886;2022-11-02T16:21:01;15.90;93.90
34406;DHT22;20658;45.630;8.886;2022-11-02T16:23:39;15.90;94.00
34406;DHT22;20658;45.630;8.886;2022-11-02T16:26:16;15.90;94.10
34406;DHT22;20658;45.630;8.886;2022-11-02T16:28:49;15.90;94.30
34406;DHT22;20658;45.630;8.886;2022-11-02T16:31:24;15.80;94.20
34406;DHT22;20658;45.630;8.886;2022-11-02T16:34:09;15.80;94.30
34406;DHT22;20658;45.630;8.886;2022-11-02T16:36:49;15.80;94.50
34406;DHT22;20658;45.630;8.886;2022-11-02T16:39:20;15.80;94.80
34406;DHT22;20658;45.630;8.886;2022-11-02T16:41:51;15.80;94.80
34406;DHT22;20658;45.630;8.886;2022-11-02T16:44:29;15.80;94.90
34406;DHT22;20658;45.630;8.886;2022-11-02T16:46:59;15.70;95.00
34406;DHT22;20658;45.630;8.886;2022-11-02T16:49:58;15.70;95.30
34406;DHT22;20658;45.630;8.886;2022-11-02T16:52:30;15.70;95.40
34406;DHT22;20658;45.630;8.886;2022-11-02T16:54:59;15.70;95.50
34406;DHT22;20658;45.630;8.886;2022-11-02T16:57:42;15.70;95.70
34406;DHT22;20658;45.630;8.886;2022-11-02T17:00:18;15.60;95.90
34406;DHT22;20658;45.630;8.886;2022-11-02T17:02:47;15.60;96.00
34406;DHT22;20658;45.630;8.886;2022-11-02T17:05:19;15.50;96.10